Time;durP1;ratioP1;P1;durP2;ratioP2;P2;SDS_P1;SDS_P2;PMS_P1;PMS_P2;Temp;Humidity;BMP_temperature;BMP_pressure;BME280_temperature;BME280_humidity;BME280_pressure;Samples;Min_cycle;Max_cycle;Signal;HPM_P1;HPM_P2
2022/07/08 00:01:52;;;;;;;13.15;6.85;;;;;;;21.18;58.05;95175.91;5056526;28;20510;-85
2022/07/08 00:04:18;;;;;;;8.43;7.38;;;;;;;21.34;58.04;95198.34;5052930;28;20036;-85
2022/07/08 00:06:43;;;;;;;10.25;7.10;;;;;;;21.11;57.88;95154.09;5047723;28;20514;-85
2022/07/08 00:09:10;;;;;;;20.13;8.93;;;;;;;20.20;57.79;94991.97;5078766;28;20121;-84
2022/07/08 00:11:36;;;;;;;10.38;7.53;;;;;;;21.39;58.43;95190.00;5081122;28;20247;-84
2022/07/08 00:14:02;;;;;;;13.63;6.93;;;;;;;20.44;59.00;95079.28;5062705;28;20101;-84
2022/07/08 00:16:28;;;;;;;14.93;6.65;;;;;;;20.48;58.72;95062.09;5062626;28;20485;-84
2022/07/08 00:18:54;;;;;;;12.68;7.40;;;;;;;20.30;58.93;95037.28;5062823;28;20035;-84
2022/07/08 00:21:20;;;;;;;12.50;7.43;;;;;;;21.30;58.67;95191.25;5050680;28;20028;-84
2022/07/08 00:23:46;;;;;;;9.88;6.57;;;;;;;21.51;58.72;95210.78;5075812;28;20028;-84
2022/07/08 00:26:11;;;;;;;11.35;7.68;;;;;;;20.57;58.99;95080.84;5062915;28;20461;-84
2022/07/08 00:28:37;;;;;;;14.98;7.43;;;;;;;21.19;60.01;95207.13;5063521;28;20110;-84
2022/07/08 00:31:02;;;;;;;12.23;7.50;;;;;;;21.21;60.02;95217.59;5062312;28;20025;-84
2022/07/08 00:33:28;;;;;;;13.98;7.85;;;;;;;19.83;59.35;94996.59;5062426;28;20032;-84
2022/07/08 00:35:53;;;;;;;11.13;8.07;;;;;;;21.03;59.51;95176.56;5062350;28;20031;-84
2022/07/08 00:38:19;;;;;;;13.63;7.90;;;;;;;21.09;59.61;95184.09;5063489;28;20089;-84
2022/07/08 00:40:45;;;;;;;11.68;7.93;;;;;;;21.16;59.94;95210.47;5071056;28;20043;-84
2022/07/08 00:43:34;;;;;;;11.50;7.70;;;;;;;21.05;59.91;95177.03;5078124;28;20136;-84
2022/07/08 00:46:00;;;;;;;14.55;8.32;;;;;;;21.04;59.19;95160.06;5072877;28;20150;-85
2022/07/08 00:48:25;;;;;;;14.55;7.65;;;;;;;21.24;59.56;95192.63;5077966;28;20115;-85
2022/07/08 00:50:51;;;;;;;10.07;7.75;;;;;;;21.34;59.89;95211.03;5072592;28;20020;-84
2022/07/08 00:53:17;;;;;;;13.95;7.50;;;;;;;20.84;59.58;95127.84;5072016;28;20036;-84
2022/07/08 00:55:43;;;;;;;15.85;7.60;;;;;;;20.82;59.65;95108.53;5057937;28;20132;-84
2022/07/08 00:58:09;;;;;;;15.30;8.35;;;;;;;21.04;59.32;95146.59;5079824;28;20040;-84
2022/07/08 01:00:35;;;;;;;11.30;7.28;;;;;;;20.70;59.42;95096.66;5071270;28;20090;-84
2022/07/08 01:03:01;;;;;;;18.33;7.55;;;;;;;21.52;59.40;95215.03;5064392;28;20063;-84
2022/07/08 01:05:26;;;;;;;12.07;7.13;;;;;;;20.55;59.53;95066.91;5063746;28;20067;-84
2022/07/08 01:07:52;;;;;;;10.00;7.57;;;;;;;20.69;59.40;95091.59;5067183;28;20023;-84
2022/07/08 01:10:17;;;;;;;9.00;5.72;;;;;;;20.78;59.22;95106.53;5067702;28;20039;-84
2022/07/08 01:12:43;;;;;;;8.40;5.90;;;;;;;20.15;59.15;95037.97;5061887;28;20516;-84
2022/07/08 01:15:09;;;;;;;6.57;5.63;;;;;;;21.21;58.70;95182.53;5061641;28;20028;-84
2022/07/08 01:17:44;;;;;;;7.82;5.40;;;;;;;20.59;59.20;95121.72;5070228;28;20094;-84
2022/07/08 01:20:11;;;;;;;8.65;5.55;;;;;;;21.06;59.19;95187.44;5060637;28;20032;-84
2022/07/08 01:22:37;;;;;;;8.93;5.90;;;;;;;21.13;58.87;95198.44;5061997;28;20476;-84
2022/07/08 01:25:04;;;;;;;8.77;5.78;;;;;;;20.68;59.07;95120.44;5064016;28;20096;-86
2022/07/08 01:27:30;;;;;;;6.50;5.90;;;;;;;20.67;58.81;95102.69;5053816;28;20032;-85
2022/07/08 01:29:56;;;;;;;7.55;6.15;;;;;;;20.85;59.07;95143.69;5069820;28;20109;-84
2022/07/08 01:32:21;;;;;;;6.60;5.47;;;;;;;20.98;59.49;95171.41;5065914;28;20046;-85
2022/07/08 01:34:47;;;;;;;6.63;5.93;;;;;;;20.43;59.40;95081.19;5072009;28;20091;-84
2022/07/08 01:37:12;;;;;;;9.07;5.45;;;;;;;20.48;59.40;95083.66;5078288;28;20097;-84
2022/07/08 01:39:37;;;;;;;8.32;5.85;;;;;;;21.27;59.42;95198.13;5094543;28;20020;-84
2022/07/08 01:42:03;;;;;;;9.15;6.32;;;;;;;20.69;59.27;95119.31;5086516;28;20113;-84
2022/07/08 01:44:29;;;;;;;8.20;6.32;;;;;;;20.70;59.53;95155.16;5085677;28;20038;-84
2022/07/08 01:46:54;;;;;;;9.45;6.75;;;;;;;20.78;60.68;95200.84;5101104;28;20051;-85
2022/07/08 01:49:20;;;;;;;9.52;6.15;;;;;;;20.69;60.59;95175.13;5086796;28;20036;-84
2022/07/08 01:51:46;;;;;;;7.35;6.30;;;;;;;20.87;60.54;95214.22;5061496;28;20131;-84
2022/07/08 01:54:11;;;;;;;10.38;6.85;;;;;;;20.77;60.57;95206.56;5061181;28;20034;-84
2022/07/08 01:56:37;;;;;;;11.77;6.28;;;;;;;20.56;60.66;95162.78;5068748;28;20085;-84
2022/07/08 01:59:02;;;;;;;10.60;6.22;;;;;;;20.06;60.09;95082.28;5068500;28;20044;-84
2022/07/08 02:01:27;;;;;;;8.88;7.05;;;;;;;20.53;60.87;95161.53;5059995;28;20518;-84
2022/07/08 02:03:53;;;;;;;8.07;5.95;;;;;;;19.49;60.66;95000.47;5060604;28;20044;-84
2022/07/08 02:06:18;;;;;;;9.05;6.53;;;;;;;19.95;60.62;95090.78;5051068;28;20036;-84
2022/07/08 02:08:44;;;;;;;19.42;7.55;;;;;;;20.85;60.56;95219.16;5056463;28;20036;-84
2022/07/08 02:13:53;;;;;;;8.80;6.65;;;;;;;20.28;61.04;95157.25;5078504;28;20039;-84
2022/07/08 02:16:18;;;;;;;11.88;7.60;;;;;;;19.91;62.15;95153.72;5069102;28;20033;-84
2022/07/08 02:18:44;;;;;;;10.38;6.75;;;;;;;20.00;62.14;95176.69;5082167;28;20521;-84
2022/07/08 02:21:09;;;;;;;7.00;6.20;;;;;;;19.70;61.60;95109.91;5070455;28;20855;-85
2022/07/08 02:23:35;;;;;;;6.75;6.05;;;;;;;20.25;61.36;95215.25;5073206;28;20553;-85
2022/07/08 02:26:00;;;;;;;7.72;6.55;;;;;;;19.44;61.41;95075.97;5060271;28;20028;-84
2022/07/08 02:28:26;;;;;;;10.93;6.95;;;;;;;19.96;61.49;95159.66;5060538;28;20089;-84
2022/07/08 02:30:51;;;;;;;11.63;6.40;;;;;;;19.76;61.37;95136.25;5060053;28;20546;-85
2022/07/08 02:33:16;;;;;;;13.05;7.25;;;;;;;19.95;61.62;95168.84;5064204;28;20036;-84
2022/07/08 02:35:42;;;;;;;9.32;7.00;;;;;;;20.22;61.37;95198.94;5074475;28;20031;-84
2022/07/08 02:38:07;;;;;;;10.48;6.90;;;;;;;20.18;61.76;95200.75;5064392;28;20471;-84
2022/07/08 02:40:33;;;;;;;10.52;6.57;;;;;;;19.98;62.04;95186.25;5063723;28;20024;-84
2022/07/08 02:42:58;;;;;;;12.88;7.88;;;;;;;19.95;62.22;95221.88;5082827;28;20456;-84
2022/07/08 02:45:23;;;;;;;13.02;7.72;;;;;;;19.90;62.69;95247.13;5064714;28;20142;-84
2022/07/08 02:47:49;;;;;;;13.90;8.13;;;;;;;19.60;63.44;95219.50;5062880;28;20027;-84
2022/07/08 02:50:14;;;;;;;9.85;7.40;;;;;;;19.25;63.46;95188.56;5083231;28;20105;-84
2022/07/08 02:52:40;;;;;;;9.40;7.50;;;;;;;19.19;62.67;95160.31;5071951;28;20172;-84
2022/07/08 02:55:05;;;;;;;14.30;8.05;;;;;;;19.58;62.54;95199.44;5063650;28;20036;-84
2022/07/08 02:57:31;;;;;;;14.48;7.95;;;;;;;19.70;61.76;95194.09;5060025;28;20088;-84
2022/07/08 02:59:56;;;;;;;10.50;7.53;;;;;;;19.29;61.85;95116.91;5050646;28;20366;-84
2022/07/08 03:02:22;;;;;;;13.50;8.50;;;;;;;19.40;61.73;95136.09;5059936;28;20494;-84
2022/07/08 03:04:47;;;;;;;11.88;7.80;;;;;;;20.12;61.59;95234.41;5054325;28;20579;-84
2022/07/08 03:07:12;;;;;;;10.18;7.70;;;;;;;19.91;61.68;95197.53;5051033;28;20052;-84
2022/07/08 03:09:38;;;;;;;14.95;7.55;;;;;;;20.03;61.77;95221.03;5066199;28;20117;-84
2022/07/08 03:12:04;;;;;;;12.02;7.20;;;;;;;20.08;61.81;95217.31;5048969;28;20123;-84
2022/07/08 03:14:29;;;;;;;11.70;6.93;;;;;;;20.02;61.77;95220.22;5057951;28;20541;-85
2022/07/08 03:16:55;;;;;;;8.27;7.38;;;;;;;20.04;61.38;95191.06;5051853;28;20104;-84
2022/07/08 03:19:20;;;;;;;12.75;6.57;;;;;;;19.65;61.20;95153.94;5067602;28;20541;-84
2022/07/08 03:21:45;;;;;;;15.13;8.30;;;;;;;20.17;60.51;95218.81;5060628;28;20051;-85
2022/07/08 03:24:12;;;;;;;9.27;7.45;;;;;;;20.03;60.70;95186.03;5067783;28;20040;-84
2022/07/08 03:26:37;;;;;;;16.48;7.63;;;;;;;19.87;60.15;95164.34;5050726;28;20044;-84
2022/07/08 03:29:03;;;;;;;11.30;7.43;;;;;;;20.34;60.47;95234.81;5057185;28;20377;-84
2022/07/08 03:31:28;;;;;;;18.63;7.38;;;;;;;20.04;60.72;95190.28;5054591;28;20502;-84
2022/07/08 03:33:54;;;;;;;21.42;7.80;;;;;;;20.30;60.67;95222.31;5046891;28;20090;-84
2022/07/08 03:36:19;;;;;;;13.95;7.55;;;;;;;20.09;60.56;95198.16;5060958;28;20063;-84
2022/07/08 03:38:45;;;;;;;11.75;7.32;;;;;;;19.98;60.54;95176.25;5057336;28;20032;-84
2022/07/08 03:41:26;;;;;;;10.13;7.45;;;;;;;20.02;60.52;95173.69;5058140;28;20123;-84
2022/07/08 03:43:53;;;;;;;10.63;7.15;;;;;;;19.84;60.37;95130.00;5044913;28;20028;-84
2022/07/08 03:46:19;;;;;;;10.98;7.60;;;;;;;20.57;60.10;95247.88;5049766;28;20048;-85
2022/07/08 03:48:45;;;;;;;12.55;7.85;;;;;;;20.35;60.46;95251.78;5061393;28;20418;-84
2022/07/08 03:51:10;;;;;;;12.43;7.30;;;;;;;20.45;59.80;95251.31;5062181;28;20048;-84
2022/07/08 03:53:36;;;;;;;12.65;7.82;;;;;;;20.28;59.60;95230.75;5054074;28;20148;-84
2022/07/08 03:56:03;;;;;;;10.63;6.95;;;;;;;20.11;59.11;95217.44;5048832;28;20457;-84
2022/07/08 03:58:28;;;;;;;10.25;6.00;;;;;;;18.66;59.08;94997.94;5042586;28;20460;-84
2022/07/08 04:00:54;;;;;;;12.10;6.78;;;;;;;19.43;58.70;95108.56;5040253;28;20374;-84
2022/07/08 04:03:19;;;;;;;9.93;6.75;;;;;;;19.96;58.48;95183.09;5039377;28;20581;-84
2022/07/08 04:05:45;;;;;;;11.10;6.22;;;;;;;20.39;57.99;95252.66;5039575;28;20043;-84
2022/07/08 04:08:10;;;;;;;12.52;6.65;;;;;;;19.97;57.91;95204.28;5044326;28;20127;-85
2022/07/08 04:10:35;;;;;;;13.52;7.18;;;;;;;18.89;58.09;95046.72;5045834;28;20036;-85
2022/07/08 04:13:01;;;;;;;10.38;7.20;;;;;;;20.09;58.07;95208.91;5039999;28;20083;-84
2022/07/08 04:15:26;;;;;;;18.90;8.10;;;;;;;19.73;58.05;95160.38;5039522;28;20040;-84
2022/07/08 04:17:52;;;;;;;19.23;8.07;;;;;;;19.72;58.42;95186.47;5040685;28;20041;-84
2022/07/08 04:20:19;;;;;;;13.52;7.80;;;;;;;17.72;59.18;94902.72;5038883;28;20045;-84
2022/07/08 04:22:44;;;;;;;11.85;8.20;;;;;;;20.04;59.16;95253.00;5039922;28;20033;-84
2022/07/08 04:25:10;;;;;;;12.48;8.52;;;;;;;19.63;59.27;95183.06;5040814;28;21127;-85
2022/07/08 04:27:35;;;;;;;17.90;10.05;;;;;;;20.04;59.64;95242.22;5040158;28;20307;-84
2022/07/08 04:30:01;;;;;;;16.10;10.15;;;;;;;19.89;60.25;95215.13;5046337;28;20369;-84
2022/07/08 04:32:26;;;;;;;16.85;11.65;;;;;;;19.69;59.92;95165.59;5040042;28;20252;-84
2022/07/08 04:34:52;;;;;;;19.20;10.38;;;;;;;19.90;59.39;95187.13;5038863;28;20032;-84
2022/07/08 04:37:18;;;;;;;16.48;10.85;;;;;;;20.19;59.68;95259.66;5040586;28;20414;-84
2022/07/08 04:39:44;;;;;;;16.45;11.57;;;;;;;19.89;60.21;95217.84;5039731;28;20487;-84
2022/07/08 04:42:10;;;;;;;13.98;9.93;;;;;;;20.39;59.78;95261.53;5040894;28;20035;-84
2022/07/08 04:44:35;;;;;;;20.70;11.30;;;;;;;19.77;60.18;95156.66;5038824;28;20043;-83
2022/07/08 04:47:00;;;;;;;26.17;12.95;;;;;;;20.14;60.02;95200.63;5038465;28;20127;-84
2022/07/08 04:49:26;;;;;;;22.75;11.70;;;;;;;20.28;59.76;95201.13;5027952;28;20042;-85
2022/07/08 04:51:51;;;;;;;19.40;12.65;;;;;;;20.49;59.65;95241.47;5038827;28;20063;-84
2022/07/08 04:54:17;;;;;;;17.30;11.07;;;;;;;19.54;59.51;95082.84;5041217;28;20044;-84
2022/07/08 04:56:42;;;;;;;23.05;11.38;;;;;;;19.65;59.67;95122.47;5039091;28;20051;-84
2022/07/08 04:59:08;;;;;;;15.80;10.77;;;;;;;19.97;59.95;95180.06;5074659;28;20477;-84
2022/07/08 05:01:34;;;;;;;24.00;10.40;;;;;;;19.47;60.27;95093.34;5062374;28;20543;-84
2022/07/08 05:03:59;;;;;;;21.83;11.15;;;;;;;20.27;59.82;95201.44;5061166;28;20201;-84
2022/07/08 05:06:25;;;;;;;20.73;10.95;;;;;;;20.42;59.21;95207.00;5056126;28;20549;-87
2022/07/08 05:08:50;;;;;;;26.75;10.32;;;;;;;20.43;58.98;95202.41;5061506;28;20253;-84
2022/07/08 05:11:15;;;;;;;14.73;10.77;;;;;;;19.97;58.77;95134.31;5049655;28;20044;-85
2022/07/08 05:13:41;;;;;;;18.45;11.73;;;;;;;20.72;58.84;95239.94;5055345;28;20561;-84
2022/07/08 05:16:06;;;;;;;16.77;11.38;;;;;;;20.34;60.27;95255.56;5074131;28;20040;-84
2022/07/08 05:18:32;;;;;;;20.00;11.05;;;;;;;20.16;60.08;95216.44;5061323;28;20043;-84
2022/07/08 05:20:57;;;;;;;19.05;11.05;;;;;;;18.29;59.60;94911.00;5078494;28;20040;-84
2022/07/08 05:23:23;;;;;;;21.40;10.80;;;;;;;20.16;59.39;95184.13;5057598;28;20063;-84
2022/07/08 05:25:48;;;;;;;21.52;10.90;;;;;;;20.38;59.79;95221.47;5077294;28;20599;-85
2022/07/08 05:28:14;;;;;;;18.13;9.95;;;;;;;20.45;59.84;95240.53;5067634;28;20051;-84
2022/07/08 05:30:39;;;;;;;19.73;10.52;;;;;;;20.30;59.73;95216.91;5076805;28;20024;-84
2022/07/08 05:33:04;;;;;;;18.70;9.98;;;;;;;19.96;59.81;95161.56;5062882;28;20135;-84
2022/07/08 05:35:30;;;;;;;19.02;10.63;;;;;;;20.28;59.81;95201.13;5080151;28;20487;-84
2022/07/08 05:37:55;;;;;;;18.65;9.95;;;;;;;20.71;59.54;95253.72;5042204;28;20040;-85
2022/07/08 05:40:21;;;;;;;15.45;9.48;;;;;;;20.75;59.32;95249.25;5063832;28;20036;-84
2022/07/08 05:42:46;;;;;;;15.55;10.02;;;;;;;20.39;59.50;95193.41;5047652;28;20131;-85
2022/07/08 05:45:13;;;;;;;28.90;11.32;;;;;;;20.32;59.42;95167.00;5058779;28;20032;-84
2022/07/08 05:47:39;;;;;;;19.65;10.52;;;;;;;20.94;58.89;95235.22;5078435;28;20125;-85
2022/07/08 05:50:05;;;;;;;14.57;10.68;;;;;;;20.71;58.56;95189.84;5060302;28;21029;-85
2022/07/08 05:52:31;;;;;;;18.58;10.45;;;;;;;20.17;58.66;95102.25;5073586;28;20128;-84
2022/07/08 05:54:57;;;;;;;16.35;10.27;;;;;;;21.24;58.21;95249.25;5075698;28;20064;-84
2022/07/08 05:57:22;;;;;;;20.83;11.05;;;;;;;21.12;58.52;95242.75;5053902;28;20221;-84
2022/07/08 05:59:50;;;;;;;15.43;9.23;;;;;;;20.93;58.15;95241.72;5080708;28;20035;-84
2022/07/08 06:02:17;;;;;;;15.90;9.95;;;;;;;21.13;58.08;95248.94;5061294;28;20088;-84
2022/07/08 06:04:42;;;;;;;13.82;9.07;;;;;;;20.94;58.03;95216.34;5062179;28;20075;-84
2022/07/08 06:07:08;;;;;;;19.95;10.30;;;;;;;20.94;57.61;95190.16;5052607;28;20517;-84
2022/07/08 06:09:33;;;;;;;15.20;9.45;;;;;;;20.70;57.18;95134.38;5060753;28;20628;-84
2022/07/08 06:11:59;;;;;;;17.20;9.13;;;;;;;21.44;57.08;95241.03;5077273;28;20040;-84
2022/07/08 06:14:24;;;;;;;15.15;10.02;;;;;;;21.13;57.18;95192.28;5059938;28;20063;-84
2022/07/08 06:17:00;;;;;;;19.15;10.20;;;;;;;21.20;58.12;95245.69;5060686;28;20465;-84
2022/07/08 06:19:25;;;;;;;17.30;9.90;;;;;;;20.77;57.91;95174.22;5059343;28;20032;-85
2022/07/08 06:21:51;;;;;;;16.38;9.75;;;;;;;21.47;57.27;95240.34;5052653;28;20745;-84
2022/07/08 06:24:17;;;;;;;14.90;9.95;;;;;;;21.51;57.52;95229.69;5067433;28;20043;-85
2022/07/08 06:26:46;;;;;;;17.83;9.82;;;;;;;21.55;57.59;95227.84;5070931;28;20040;-85
2022/07/08 06:29:12;;;;;;;21.55;13.15;;;;;;;20.65;57.52;95091.50;5057298;28;20037;-85
2022/07/08 06:31:38;;;;;;;19.33;11.02;;;;;;;20.91;57.87;95136.91;5071533;28;20036;-84
2022/07/08 06:34:06;;;;;;;16.92;10.00;;;;;;;21.39;57.57;95189.22;5069165;28;20036;-84
2022/07/08 06:36:35;;;;;;;18.83;10.48;;;;;;;21.27;57.53;95151.50;5058133;28;20060;-85
2022/07/08 06:39:00;;;;;;;17.00;9.80;;;;;;;21.33;57.38;95150.91;5056024;28;20408;-84
2022/07/08 06:41:26;;;;;;;18.92;9.63;;;;;;;20.84;56.88;95068.53;5061186;28;20040;-84
2022/07/08 06:43:51;;;;;;;14.57;9.70;;;;;;;21.36;56.91;95119.78;5059944;28;20043;-84
2022/07/08 06:46:17;;;;;;;21.10;10.68;;;;;;;21.01;57.16;95071.75;5070481;28;20517;-85
2022/07/08 06:48:42;;;;;;;16.35;10.02;;;;;;;21.00;56.95;95051.31;5053924;28;20040;-84
2022/07/08 06:51:10;;;;;;;17.67;10.07;;;;;;;21.52;56.73;95136.78;5057335;28;20120;-84
2022/07/08 06:56:20;;;;;;;17.38;10.02;;;;;;;21.40;57.04;95090.97;5070169;28;20148;-84
2022/07/08 06:58:46;;;;;;;23.55;10.43;;;;;;;21.78;56.61;95131.72;5071390;28;20505;-84
2022/07/08 07:01:12;;;;;;;22.13;11.10;;;;;;;21.74;56.64;95111.94;5050225;28;20585;-84
2022/07/08 07:03:38;;;;;;;23.15;10.13;;;;;;;22.32;56.43;95179.84;5047173;28;20052;-84
2022/07/08 07:06:04;;;;;;;21.77;10.23;;;;;;;21.82;56.15;95113.69;5068165;28;20032;-84
2022/07/08 07:08:29;;;;;;;19.33;8.05;;;;;;;21.75;55.76;95101.94;5056080;28;20047;-84
2022/07/08 07:10:55;;;;;;;14.57;8.93;;;;;;;21.18;56.11;95014.88;5067834;28;20036;-84
2022/07/08 07:13:20;;;;;;;16.67;8.27;;;;;;;22.44;56.27;95179.75;5054524;28;20136;-84
2022/07/08 07:15:46;;;;;;;17.20;8.40;;;;;;;22.60;55.92;95180.53;5052918;28;20032;-85
2022/07/08 07:18:11;;;;;;;11.82;7.53;;;;;;;22.59;55.16;95175.47;5065625;28;20043;-84
2022/07/08 07:20:37;;;;;;;8.35;6.13;;;;;;;22.25;54.83;95110.22;5060020;28;20020;-84
2022/07/08 07:23:02;;;;;;;14.00;6.47;;;;;;;22.67;54.96;95166.41;5073797;28;20036;-84
2022/07/08 07:25:28;;;;;;;9.95;6.32;;;;;;;22.91;54.46;95174.34;5058300;28;20024;-85
2022/07/08 07:27:53;;;;;;;8.25;6.38;;;;;;;22.63;55.46;95130.41;5061772;28;20039;-84
2022/07/08 07:30:25;;;;;;;8.75;6.50;;;;;;;22.62;55.69;95118.81;5057536;28;20032;-84
2022/07/08 07:32:53;;;;;;;7.22;4.97;;;;;;;22.65;53.86;95161.38;5056367;28;20035;-84
2022/07/08 07:35:20;;;;;;;9.93;6.10;;;;;;;21.82;54.05;95031.94;5045307;28;20924;-83
2022/07/08 07:37:46;;;;;;;11.88;6.20;;;;;;;22.62;54.16;95121.50;5053558;28;20474;-84
2022/07/08 07:40:12;;;;;;;12.57;5.70;;;;;;;22.25;54.33;95077.78;5061497;28;20028;-83
2022/07/08 07:42:37;;;;;;;8.15;5.65;;;;;;;22.26;53.33;95057.75;5074163;28;20032;-84
2022/07/08 07:45:04;;;;;;;12.55;5.65;;;;;;;22.86;53.54;95155.69;5060607;28;20020;-83
2022/07/08 07:47:30;;;;;;;8.68;5.05;;;;;;;21.13;52.79;94903.78;5061231;28;20478;-84
2022/07/08 07:49:55;;;;;;;8.13;5.03;;;;;;;22.27;54.54;95089.03;5064634;28;20078;-85
2022/07/08 07:52:21;;;;;;;6.20;4.65;;;;;;;22.38;54.75;95093.91;5081595;28;20032;-85
2022/07/08 07:54:47;;;;;;;7.57;4.60;;;;;;;22.81;53.53;95136.25;5072585;28;20032;-85
2022/07/08 07:57:13;;;;;;;8.65;3.95;;;;;;;22.85;51.86;95151.41;5062822;28;20035;-84
2022/07/08 07:59:39;;;;;;;6.35;3.78;;;;;;;23.11;51.26;95188.72;5059761;28;20813;-84
2022/07/08 08:02:05;;;;;;;9.32;4.57;;;;;;;22.82;51.90;95130.47;5062835;28;20036;-84
2022/07/08 08:04:31;;;;;;;14.13;4.82;;;;;;;22.31;52.25;95032.38;5052288;28;20024;-84
2022/07/08 08:06:56;;;;;;;13.05;4.20;;;;;;;22.40;51.84;95070.03;5063010;28;20043;-84
2022/07/08 08:09:22;;;;;;;7.03;4.30;;;;;;;21.94;51.70;95010.25;5079539;28;20145;-84
2022/07/08 08:11:47;;;;;;;6.15;3.70;;;;;;;23.12;50.89;95184.84;5078112;28;20029;-84
2022/07/08 08:14:13;;;;;;;6.18;4.07;;;;;;;22.58;51.09;95090.91;5059232;28;20074;-84
2022/07/08 08:16:38;;;;;;;7.15;4.90;;;;;;;22.83;50.89;95118.53;5071868;28;20043;-84
2022/07/08 08:19:03;;;;;;;5.35;4.18;;;;;;;23.04;51.29;95137.91;5058174;28;20032;-85
2022/07/08 08:21:29;;;;;;;8.88;4.53;;;;;;;22.93;50.49;95114.50;5072496;28;20028;-84
2022/07/08 08:23:56;;;;;;;13.73;4.82;;;;;;;22.18;50.51;94963.41;5053345;28;20033;-84
2022/07/08 08:26:22;;;;;;;12.90;4.88;;;;;;;23.53;50.80;95161.00;5055351;28;20620;-84
2022/07/08 08:28:49;;;;;;;9.18;4.50;;;;;;;23.65;52.12;95161.63;5059170;28;20043;-84
2022/07/08 08:31:14;;;;;;;9.25;4.93;;;;;;;22.67;50.74;95001.50;5073365;28;20044;-84
2022/07/08 08:33:40;;;;;;;12.57;4.55;;;;;;;23.30;49.38;95083.22;5087226;28;20040;-85
2022/07/08 08:36:06;;;;;;;7.60;4.55;;;;;;;23.23;49.21;95068.75;5075856;28;20417;-84
2022/07/08 08:38:31;;;;;;;8.73;4.30;;;;;;;23.89;49.11;95165.19;5076666;28;20116;-85
2022/07/08 08:41:01;;;;;;;6.32;3.72;;;;;;;23.84;50.67;95148.09;5062172;28;20047;-84
2022/07/08 08:43:27;;;;;;;8.88;4.43;;;;;;;24.22;50.14;95163.53;5052398;28;20048;-85
2022/07/08 08:45:53;;;;;;;5.05;4.05;;;;;;;24.04;49.19;95148.06;5077670;28;20068;-85
2022/07/08 08:48:23;;;;;;;5.63;4.18;;;;;;;23.68;49.21;95068.88;5080858;28;20036;-85
2022/07/08 08:50:53;;;;;;;9.98;3.45;;;;;;;24.36;49.86;95154.06;5058185;28;20035;-85
2022/07/08 08:53:27;;;;;;;12.93;5.03;;;;;;;24.37;50.11;95126.63;5076175;28;20050;-84
2022/07/08 08:55:54;;;;;;;7.00;3.92;;;;;;;24.05;48.13;95066.44;5058875;28;20233;-85
2022/07/08 08:58:19;;;;;;;5.72;3.60;;;;;;;24.54;48.80;95123.41;5072956;28;20087;-85
2022/07/08 09:00:45;;;;;;;3.45;3.13;;;;;;;24.33;47.08;95082.44;5058761;28;20074;-85
2022/07/08 09:03:10;;;;;;;6.55;3.85;;;;;;;24.16;48.56;95062.00;5061176;28;20072;-85
2022/07/08 09:05:36;;;;;;;11.85;4.20;;;;;;;24.32;49.21;95061.09;5060689;28;20040;-85
2022/07/08 09:08:02;;;;;;;4.90;3.35;;;;;;;24.29;48.92;95064.53;5057608;28;20757;-85
2022/07/08 09:10:27;;;;;;;5.53;3.45;;;;;;;24.67;46.99;95136.75;5055239;28;20124;-85
2022/07/08 09:13:03;;;;;;;5.53;3.30;;;;;;;24.68;46.76;95095.72;5055843;28;20024;-85
2022/07/08 09:15:39;;;;;;;4.13;3.38;;;;;;;24.53;47.16;95083.09;5060791;28;20040;-85
2022/07/08 09:18:16;;;;;;;7.70;3.72;;;;;;;24.50;46.62;95041.25;5061605;28;20032;-85
2022/07/08 09:20:46;;;;;;;8.55;3.58;;;;;;;24.95;47.08;95119.00;5068483;28;20189;-85
2022/07/08 09:23:13;;;;;;;3.97;3.22;;;;;;;24.99;45.54;95117.13;5061295;28;20050;-85
2022/07/08 09:25:39;;;;;;;4.18;2.88;;;;;;;24.51;45.11;95018.41;5061517;28;20058;-84
2022/07/08 09:28:04;;;;;;;7.10;3.33;;;;;;;24.81;44.38;95064.53;5068432;28;20107;-85
2022/07/08 09:30:30;;;;;;;5.35;3.53;;;;;;;25.09;44.93;95085.88;5060143;28;20501;-85
2022/07/08 09:32:57;;;;;;;7.97;3.30;;;;;;;24.65;46.93;95023.25;5063883;28;20127;-84
2022/07/08 09:35:30;;;;;;;5.85;3.63;;;;;;;25.33;46.38;95107.09;5063637;28;20150;-86
2022/07/08 09:37:59;;;;;;;6.97;3.38;;;;;;;25.31;46.18;95085.00;5074535;28;20028;-85
2022/07/08 09:40:25;;;;;;;5.22;3.00;;;;;;;25.31;45.81;95076.84;5061025;28;20056;-85
2022/07/08 09:42:50;;;;;;;5.80;3.22;;;;;;;25.03;43.37;95026.84;5061360;28;20038;-85
2022/07/08 09:45:16;;;;;;;6.13;3.10;;;;;;;25.40;42.32;95081.22;5060598;28;20182;-85
2022/07/08 09:47:41;;;;;;;5.22;2.85;;;;;;;25.45;42.67;95056.44;5056148;28;20455;-85
2022/07/08 09:50:09;;;;;;;3.55;2.70;;;;;;;25.56;41.88;94968.50;5052839;28;20447;-85
2022/07/08 09:52:34;;;;;;;4.53;2.50;;;;;;;26.55;40.50;95022.94;5076887;28;20128;-85
2022/07/08 09:55:04;;;;;;;5.18;2.35;;;;;;;27.91;39.34;95096.72;5055534;28;20464;-85
2022/07/08 09:57:30;;;;;;;5.18;2.72;;;;;;;28.51;37.76;95095.25;5080426;28;20077;-85
2022/07/08 09:59:57;;;;;;;15.75;2.90;;;;;;;29.54;36.70;95087.66;5081973;28;20863;-85
2022/07/08 10:02:23;;;;;;;3.60;2.40;;;;;;;30.11;34.82;95038.16;5060864;28;20126;-85
2022/07/08 10:04:50;;;;;;;3.85;2.60;;;;;;;30.32;32.84;95018.84;5060670;28;20561;-85
2022/07/08 10:07:16;;;;;;;8.38;2.80;;;;;;;31.05;31.84;95078.75;5073317;28;20079;-85
2022/07/08 10:09:42;;;;;;;5.07;2.60;;;;;;;30.14;31.67;94837.69;5060495;28;20028;-85
2022/07/08 10:12:11;;;;;;;3.70;2.45;;;;;;;32.49;30.47;95044.41;5060119;28;20040;-85
2022/07/08 10:14:36;;;;;;;2.88;2.08;;;;;;;32.49;27.66;95001.28;5058399;28;20070;-85
2022/07/08 10:17:06;;;;;;;7.68;3.85;;;;;;;32.69;27.63;94984.88;5061777;28;20086;-85
2022/07/08 10:19:38;;;;;;;3.63;2.20;;;;;;;32.86;28.80;95040.66;5064246;28;20863;-86
2022/07/08 10:22:07;;;;;;;2.35;2.15;;;;;;;33.31;29.06;94992.31;5061025;28;20036;-85
2022/07/08 10:24:38;;;;;;;9.77;2.60;;;;;;;33.04;29.71;94980.66;5062190;28;20055;-85
2022/07/08 10:27:04;;;;;;;8.13;2.67;;;;;;;33.49;28.27;95048.91;5076005;28;20032;-85
2022/07/08 10:29:33;;;;;;;3.47;2.40;;;;;;;33.31;27.53;95002.53;5054316;28;20554;-85
2022/07/08 10:31:59;;;;;;;6.38;2.03;;;;;;;33.56;26.63;95030.28;5058393;28;20027;-85
2022/07/08 10:34:32;;;;;;;5.03;2.20;;;;;;;33.05;26.98;95030.88;5062213;28;20527;-84
2022/07/08 10:36:58;;;;;;;3.17;2.05;;;;;;;32.95;27.54;95018.91;5090027;28;20112;-85
2022/07/08 10:39:39;;;;;;;5.65;2.10;;;;;;;32.86;27.23;94956.28;5063761;28;20036;-84
2022/07/08 10:42:10;;;;;;;8.43;1.63;;;;;;;33.39;27.11;95031.41;5062715;28;20031;-85
2022/07/08 10:44:45;;;;;;;;;;;;;;;33.65;27.73;95024.94;5062030;28;20143;-85
2022/07/08 10:47:23;;;;;;;4.70;2.20;;;;;;;33.65;26.93;95033.19;5064724;28;20359;-85
2022/07/08 10:49:50;;;;;;;3.35;2.15;;;;;;;33.57;27.57;94992.53;5068220;28;20027;-85
2022/07/08 10:52:17;;;;;;;2.90;1.80;;;;;;;33.71;26.31;95041.75;5066363;28;20062;-84
2022/07/08 10:54:43;;;;;;;2.97;2.00;;;;;;;33.27;27.08;95021.81;5066037;28;20055;-84
2022/07/08 10:57:28;;;;;;;2.50;1.95;;;;;;;32.09;27.60;94937.25;5075625;28;20036;-85
2022/07/08 11:00:03;;;;;;;4.57;2.10;;;;;;;32.24;27.54;94989.16;5059803;28;20706;-85
2022/07/08 11:02:29;;;;;;;5.72;2.10;;;;;;;31.99;28.59;94973.06;5054712;28;20089;-84
2022/07/08 11:04:56;;;;;;;6.57;2.85;;;;;;;31.38;28.35;95014.25;5061823;28;20060;-85
2022/07/08 11:07:24;;;;;;;2.53;1.90;;;;;;;31.36;29.43;95031.09;5058096;28;20039;-84
2022/07/08 11:09:58;;;;;;;6.35;2.45;;;;;;;31.11;30.07;95016.16;5054196;28;20040;-85
2022/07/08 11:12:28;;;;;;;7.55;2.25;;;;;;;30.55;31.28;95007.31;5072017;28;20130;-85
2022/07/08 11:14:55;;;;;;;3.55;2.30;;;;;;;30.60;31.00;95024.06;5063906;28;20043;-85
2022/07/08 11:17:23;;;;;;;2.80;2.10;;;;;;;29.86;31.89;94946.13;5077826;28;20488;-85
2022/07/08 11:19:51;;;;;;;4.72;2.25;;;;;;;29.63;33.05;94910.38;5065404;28;20107;-85
2022/07/08 11:22:18;;;;;;;3.20;2.20;;;;;;;29.82;34.56;95000.06;5053977;28;20135;-84
2022/07/08 11:24:44;;;;;;;3.05;2.45;;;;;;;29.04;35.44;94937.63;5082109;28;20044;-84
2022/07/08 11:27:10;;;;;;;5.60;2.30;;;;;;;28.97;34.10;94983.31;5074562;28;20046;-84
2022/07/08 11:29:36;;;;;;;5.72;2.40;;;;;;;28.41;34.37;94944.06;5064033;28;20063;-84